createdAt,value
2019-04-29T00:01:37.288Z,99.90
2019-04-29T00:04:06.848Z,99.90
2019-04-29T00:06:36.439Z,99.90
2019-04-29T00:09:12.076Z,99.90
2019-04-29T00:11:41.468Z,99.90
2019-04-29T00:14:10.959Z,99.90
2019-04-29T00:16:49.527Z,99.90
2019-04-29T00:19:37.105Z,99.90
2019-04-29T00:22:07.002Z,99.90
2019-04-29T00:24:36.611Z,99.90
2019-04-29T00:27:06.216Z,99.90
2019-04-29T00:29:35.742Z,99.90
2019-04-29T00:32:06.108Z,99.90
2019-04-29T00:34:35.627Z,99.90
2019-04-29T00:37:24.151Z,99.90
2019-04-29T00:40:27.939Z,99.90
2019-04-29T00:43:05.364Z,99.90
2019-04-29T00:45:35.314Z,99.90
2019-04-29T00:48:04.764Z,99.90
2019-04-29T00:50:34.497Z,99.90
2019-04-29T00:53:04.061Z,99.90
2019-04-29T00:55:34.105Z,99.90
2019-04-29T00:58:03.476Z,99.90
2019-04-29T01:00:38.772Z,99.90
2019-04-29T01:03:08.105Z,99.90
2019-04-29T01:05:38.131Z,99.90
2019-04-29T01:08:07.582Z,99.90
2019-04-29T01:10:37.085Z,99.90
2019-04-29T01:13:06.558Z,99.90
2019-04-29T01:15:35.980Z,99.90
2019-04-29T01:18:05.620Z,99.90
2019-04-29T01:20:34.996Z,99.90
2019-04-29T01:23:04.740Z,99.90
2019-04-29T01:25:34.155Z,99.90
2019-04-29T01:28:10.775Z,99.90
2019-04-29T01:31:16.513Z,99.90
2019-04-29T01:33:47.551Z,99.90
2019-04-29T01:36:44.727Z,99.90
2019-04-29T01:39:15.633Z,99.90
2019-04-29T01:42:06.658Z,99.90
2019-04-29T01:44:37.659Z,99.90
2019-04-29T01:47:06.993Z,99.90
2019-04-29T01:49:36.362Z,99.90
2019-04-29T01:52:05.768Z,99.90
2019-04-29T01:54:35.392Z,99.90
2019-04-29T01:57:04.812Z,99.90
2019-04-29T01:59:34.423Z,99.90
2019-04-29T02:02:04.019Z,99.90
2019-04-29T02:04:33.544Z,99.90
2019-04-29T02:07:03.271Z,99.90
2019-04-29T02:09:40.094Z,99.90
2019-04-29T02:12:09.847Z,99.90
2019-04-29T02:14:39.467Z,99.90
2019-04-29T02:17:08.851Z,99.90
2019-04-29T02:19:38.364Z,99.90
2019-04-29T02:22:11.903Z,99.90
2019-04-29T02:24:44.310Z,99.90
2019-04-29T02:27:13.921Z,99.90
2019-04-29T02:29:43.302Z,99.90
2019-04-29T02:32:12.815Z,99.90
2019-04-29T02:34:42.268Z,99.90
2019-04-29T02:37:13.586Z,99.90
2019-04-29T02:39:48.752Z,99.90
2019-04-29T02:42:43.212Z,99.90
2019-04-29T02:45:21.054Z,99.90
2019-04-29T02:47:50.448Z,99.90
2019-04-29T02:50:19.865Z,99.90
2019-04-29T02:52:49.291Z,99.90
2019-04-29T02:55:24.610Z,99.90
2019-04-29T02:58:12.419Z,99.90
2019-04-29T03:00:59.037Z,99.90
2019-04-29T03:03:37.364Z,99.90
2019-04-29T03:06:06.883Z,99.90
2019-04-29T03:08:36.305Z,99.90
2019-04-29T03:11:05.748Z,99.90
2019-04-29T03:13:35.340Z,99.90
2019-04-29T03:16:04.930Z,99.90
2019-04-29T03:18:36.213Z,99.90
2019-04-29T03:21:12.584Z,99.90
2019-04-29T03:23:42.361Z,99.90
2019-04-29T03:26:11.924Z,99.90
2019-04-29T03:28:41.285Z,99.90
2019-04-29T03:31:10.825Z,99.90
2019-04-29T03:33:40.534Z,99.90
2019-04-29T03:36:09.892Z,99.90
2019-04-29T03:38:39.440Z,99.90
2019-04-29T03:41:08.925Z,99.90
2019-04-29T03:43:39.105Z,99.90
2019-04-29T03:46:08.697Z,99.90
2019-04-29T03:48:38.263Z,99.90
2019-04-29T03:51:08.074Z,99.90
2019-04-29T03:53:37.456Z,99.90
2019-04-29T03:56:06.972Z,99.90
2019-04-29T03:58:36.497Z,99.90
2019-04-29T04:01:17.721Z,99.90
2019-04-29T04:03:51.724Z,99.90
2019-04-29T04:06:30.540Z,99.90
2019-04-29T04:09:10.393Z,99.90
2019-04-29T04:11:39.732Z,99.90
2019-04-29T04:14:09.150Z,99.90
2019-04-29T04:16:56.686Z,99.90
2019-04-29T04:19:27.466Z,99.90
2019-04-29T04:21:56.823Z,99.90
2019-04-29T04:24:26.203Z,99.90
2019-04-29T04:26:55.617Z,99.90
2019-04-29T04:29:25.049Z,99.90
2019-04-29T04:31:54.586Z,99.90
2019-04-29T04:34:24.193Z,99.90
2019-04-29T04:36:53.750Z,99.90
2019-04-29T04:39:23.100Z,99.90
2019-04-29T04:41:52.834Z,99.90
2019-04-29T04:44:24.081Z,99.90
2019-04-29T04:46:53.695Z,99.90
2019-04-29T04:49:23.330Z,99.90
2019-04-29T04:51:52.825Z,99.90
2019-04-29T04:54:22.340Z,99.90
2019-04-29T04:56:51.983Z,99.90
2019-04-29T04:59:21.327Z,99.90
2019-04-29T05:01:51.097Z,99.90
2019-04-29T05:04:20.463Z,99.90
2019-04-29T05:06:50.063Z,99.90
2019-04-29T05:09:19.604Z,99.90
2019-04-29T05:11:49.256Z,99.90
2019-04-29T05:14:18.678Z,99.90
2019-04-29T05:16:48.304Z,99.90
2019-04-29T05:19:17.784Z,99.90
2019-04-29T05:21:47.496Z,99.90
2019-04-29T05:24:17.040Z,99.90
2019-04-29T05:26:46.403Z,99.90
2019-04-29T05:29:17.061Z,99.90
2019-04-29T05:31:46.504Z,99.90
2019-04-29T05:34:16.481Z,99.90
2019-04-29T05:36:58.330Z,99.90
2019-04-29T05:39:31.513Z,99.90
2019-04-29T05:42:02.057Z,99.90
2019-04-29T05:44:56.420Z,99.90
2019-04-29T05:47:33.323Z,99.90
2019-04-29T05:50:20.231Z,99.90
2019-04-29T05:52:58.068Z,99.90
2019-04-29T05:55:27.423Z,99.90
2019-04-29T05:58:11.680Z,99.90
2019-04-29T06:00:44.259Z,99.90
2019-04-29T06:03:13.745Z,99.90
2019-04-29T06:05:43.423Z,99.90
2019-04-29T06:08:12.897Z,99.90
2019-04-29T06:10:42.409Z,99.90
2019-04-29T06:13:11.984Z,99.90
2019-04-29T06:15:41.446Z,99.90
2019-04-29T06:18:10.949Z,99.90
2019-04-29T06:20:40.392Z,99.90
2019-04-29T06:23:09.878Z,99.90
2019-04-29T06:25:39.358Z,99.90
2019-04-29T06:28:09.055Z,99.90
2019-04-29T06:30:40.740Z,99.90
2019-04-29T06:33:10.116Z,99.90
2019-04-29T06:35:43.419Z,99.90
2019-04-29T06:38:10.950Z,99.90
2019-04-29T06:40:40.715Z,99.90
2019-04-29T06:43:10.112Z,99.90
2019-04-29T06:45:39.849Z,99.90
2019-04-29T06:48:09.231Z,99.90
2019-04-29T06:50:38.742Z,99.90
2019-04-29T06:53:08.224Z,99.90
2019-04-29T06:55:37.847Z,99.90
2019-04-29T06:58:07.335Z,99.90
2019-04-29T07:00:37.022Z,99.90
2019-04-29T07:03:06.498Z,99.90
2019-04-29T07:05:36.092Z,99.90
2019-04-29T07:08:05.863Z,99.90
2019-04-29T07:10:35.377Z,99.90
2019-04-29T07:13:05.082Z,99.90
2019-04-29T07:15:34.537Z,99.90
2019-04-29T07:18:04.044Z,99.90
2019-04-29T07:20:37.217Z,99.90
2019-04-29T07:23:04.787Z,99.90
2019-04-29T07:25:34.327Z,99.90
2019-04-29T07:28:03.935Z,99.90
2019-04-29T07:30:33.488Z,99.90
2019-04-29T07:33:05.421Z,99.90
2019-04-29T07:35:37.852Z,99.90
2019-04-29T07:38:08.650Z,99.90
2019-04-29T07:40:38.705Z,99.90
2019-04-29T07:43:09.680Z,99.90
2019-04-29T07:46:05.527Z,99.90
2019-04-29T07:48:36.796Z,99.90
2019-04-29T07:51:06.852Z,99.90
2019-04-29T07:53:44.834Z,99.90
2019-04-29T07:56:08.222Z,99.90
2019-04-29T07:58:37.624Z,99.90
2019-04-29T08:01:07.658Z,99.90
2019-04-29T08:03:37.301Z,99.90
2019-04-29T08:06:06.882Z,99.90
2019-04-29T08:08:36.470Z,99.90
2019-04-29T08:11:06.107Z,99.90
2019-04-29T08:13:36.659Z,99.90
2019-04-29T08:16:06.149Z,99.90
2019-04-29T08:18:35.654Z,99.90
2019-04-29T08:21:05.181Z,99.90
2019-04-29T08:23:41.141Z,99.90
2019-04-29T08:26:05.987Z,99.90
2019-04-29T08:28:35.453Z,99.90
2019-04-29T08:31:04.870Z,99.90
2019-04-29T08:33:34.436Z,99.90
2019-04-29T08:36:04.019Z,99.90
2019-04-29T08:38:33.476Z,99.90
2019-04-29T08:41:02.968Z,99.90
2019-04-29T08:43:57.778Z,99.90
2019-04-29T08:46:30.222Z,99.90
2019-04-29T08:49:01.008Z,99.90
2019-04-29T08:51:30.755Z,99.90
2019-04-29T08:54:00.201Z,99.90
2019-04-29T08:56:29.537Z,99.90
2019-04-29T08:58:59.023Z,99.90
2019-04-29T09:01:29.304Z,99.90
2019-04-29T09:03:59.795Z,99.90
2019-04-29T09:06:32.692Z,99.90
2019-04-29T09:09:04.912Z,99.90
2019-04-29T09:11:32.559Z,99.90
2019-04-29T09:14:02.102Z,99.90
2019-04-29T09:16:31.585Z,99.90
2019-04-29T09:19:01.228Z,99.90
2019-04-29T09:21:30.598Z,99.90
2019-04-29T09:24:00.145Z,99.90
2019-04-29T09:26:44.175Z,99.90
2019-04-29T09:29:35.378Z,99.90
2019-04-29T09:32:05.852Z,99.90
2019-04-29T09:34:35.626Z,99.90
2019-04-29T09:37:05.322Z,99.90
2019-04-29T09:39:43.588Z,99.90
2019-04-29T09:42:31.036Z,99.90
2019-04-29T09:45:14.674Z,99.90
2019-04-29T09:47:42.466Z,99.90
2019-04-29T09:50:11.989Z,99.90
2019-04-29T09:52:43.297Z,99.90
2019-04-29T09:55:12.992Z,99.90
2019-04-29T09:57:42.432Z,99.90
2019-04-29T10:00:25.361Z,99.90
2019-04-29T10:03:10.197Z,99.90
2019-04-29T10:05:45.783Z,99.90
2019-04-29T10:08:15.690Z,99.90
2019-04-29T10:10:46.022Z,99.90
2019-04-29T10:13:15.831Z,99.90
2019-04-29T10:16:04.166Z,99.90
2019-04-29T10:18:41.937Z,99.90
2019-04-29T10:21:16.433Z,99.90
2019-04-29T10:23:45.296Z,99.90
2019-04-29T10:26:14.735Z,99.90
2019-04-29T10:28:54.944Z,99.90
2019-04-29T10:31:24.671Z,99.90
2019-04-29T10:33:54.941Z,96.60
2019-04-29T10:36:26.288Z,98.80
2019-04-29T10:38:58.082Z,98.00
2019-04-29T10:41:46.296Z,98.50
2019-04-29T10:44:26.640Z,99.90
2019-04-29T10:47:24.356Z,99.90
2019-04-29T10:50:17.022Z,99.90
2019-04-29T10:52:46.725Z,99.90
2019-04-29T10:55:17.452Z,99.90
2019-04-29T10:57:49.713Z,99.90
2019-04-29T11:00:36.487Z,99.90
2019-04-29T11:03:06.194Z,99.90
2019-04-29T11:05:38.764Z,99.90
2019-04-29T11:08:17.548Z,99.90
2019-04-29T11:10:47.119Z,99.90
2019-04-29T11:13:16.491Z,99.90
2019-04-29T11:15:49.472Z,99.90
2019-04-29T11:18:18.107Z,99.10
2019-04-29T11:20:53.539Z,99.90
2019-04-29T11:23:50.631Z,99.50
2019-04-29T11:26:28.767Z,99.90
2019-04-29T11:28:59.273Z,99.90
2019-04-29T11:31:29.098Z,99.90
2019-04-29T11:34:35.541Z,97.80
2019-04-29T11:37:06.941Z,99.30
2019-04-29T11:39:36.546Z,95.80
2019-04-29T11:42:08.621Z,96.10
2019-04-29T11:44:38.077Z,97.10
2019-04-29T11:47:07.454Z,97.30
2019-04-29T11:49:43.090Z,95.20
2019-04-29T11:52:12.512Z,94.20
2019-04-29T11:54:41.918Z,91.80
2019-04-29T11:57:17.200Z,94.80
2019-04-29T12:00:11.960Z,90.80
2019-04-29T12:02:51.038Z,90.80
2019-04-29T12:05:27.595Z,98.70
2019-04-29T12:07:57.437Z,96.50
2019-04-29T12:10:26.872Z,92.60
2019-04-29T12:12:58.147Z,92.10
2019-04-29T12:15:56.122Z,91.00
2019-04-29T12:18:29.616Z,91.60
2019-04-29T12:21:08.273Z,92.10
2019-04-29T12:23:37.810Z,91.30
2019-04-29T12:26:07.447Z,79.10
2019-04-29T12:28:37.828Z,79.30
2019-04-29T12:31:16.204Z,79.90
2019-04-29T12:33:51.416Z,83.60
2019-04-29T12:36:20.915Z,78.30
2019-04-29T12:39:08.887Z,89.70
2019-04-29T12:41:55.929Z,80.50
2019-04-29T12:44:48.487Z,87.80
2019-04-29T12:47:28.626Z,90.30
2019-04-29T12:49:58.228Z,93.60
2019-04-29T12:52:27.878Z,94.80
2019-04-29T12:55:00.540Z,83.30
2019-04-29T12:57:28.483Z,82.60
2019-04-29T12:59:58.043Z,93.30
2019-04-29T13:02:45.307Z,90.20
2019-04-29T13:05:42.112Z,89.80
2019-04-29T13:08:19.110Z,91.60
2019-04-29T13:10:53.914Z,90.60
2019-04-29T13:13:23.515Z,88.00
2019-04-29T13:16:11.880Z,90.90
2019-04-29T13:19:11.856Z,86.10
2019-04-29T13:21:40.915Z,85.40
2019-04-29T13:24:23.074Z,89.70
2019-04-29T13:26:42.940Z,83.10
2019-04-29T13:29:26.280Z,86.30
2019-04-29T13:31:44.684Z,92.20
2019-04-29T13:34:24.050Z,92.60
2019-04-29T13:37:06.090Z,87.60
2019-04-29T13:39:38.456Z,83.30
2019-04-29T13:41:57.550Z,88.10
2019-04-29T13:44:24.568Z,95.00
2019-04-29T13:47:11.737Z,95.80
2019-04-29T13:49:49.113Z,95.00
2019-04-29T13:52:16.915Z,94.40
2019-04-29T13:54:46.613Z,89.70
2019-04-29T13:57:16.450Z,94.30
2019-04-29T13:59:54.224Z,92.20
2019-04-29T14:02:33.409Z,93.20
2019-04-29T14:05:02.759Z,93.40
2019-04-29T14:07:32.263Z,95.10
2019-04-29T14:10:01.906Z,96.80
2019-04-29T14:15:02.891Z,99.10
2019-04-29T14:17:35.708Z,97.90
2019-04-29T14:18:53.484Z,98.10
2019-04-29T14:20:03.682Z,98.50
2019-04-29T14:22:33.484Z,96.00
2019-04-29T14:25:02.949Z,97.80
2019-04-29T14:27:32.593Z,96.10
2019-04-29T14:30:03.177Z,90.90
2019-04-29T14:32:37.911Z,71.90
2019-04-29T14:35:26.968Z,78.10
2019-04-29T14:38:04.339Z,76.60
2019-04-29T14:40:28.214Z,76.90
2019-04-29T14:43:28.852Z,81.00
2019-04-29T14:46:15.850Z,84.50
2019-04-29T14:48:59.609Z,80.80
2019-04-29T14:51:34.111Z,81.60
2019-04-29T14:54:01.395Z,79.90
2019-04-29T14:56:30.542Z,79.20
2019-04-29T14:59:06.969Z,86.30
2019-04-29T15:01:50.405Z,91.10
2019-04-29T15:04:23.468Z,90.50
2019-04-29T15:06:53.246Z,86.20
2019-04-29T15:09:23.100Z,90.50
2019-04-29T15:12:03.514Z,89.20
2019-04-29T15:14:59.126Z,91.60
2019-04-29T15:17:40.351Z,92.60
2019-04-29T15:20:30.351Z,93.20
2019-04-29T15:22:59.594Z,95.50
2019-04-29T15:25:29.612Z,95.10
2019-04-29T15:27:59.342Z,97.20
2019-04-29T15:30:31.880Z,98.70
2019-04-29T15:33:00.206Z,97.20
2019-04-29T15:35:29.710Z,95.30
2019-04-29T15:37:59.294Z,95.60
2019-04-29T15:40:28.960Z,95.60
2019-04-29T15:42:58.919Z,98.50
2019-04-29T15:45:32.318Z,97.00
2019-04-29T15:48:00.271Z,98.50
2019-04-29T15:50:32.630Z,96.40
2019-04-29T15:55:34.937Z,98.90
2019-04-29T15:58:04.308Z,98.70
2019-04-29T16:00:38.035Z,98.50
2019-04-29T16:03:05.392Z,97.20
2019-04-29T16:06:20.621Z,97.90
2019-04-29T16:08:52.278Z,99.00
2019-04-29T16:11:56.000Z,99.90
2019-04-29T16:14:25.612Z,99.90
2019-04-29T16:16:55.145Z,99.90
2019-04-29T16:19:24.654Z,99.90
2019-04-29T16:21:54.231Z,99.90
2019-04-29T16:24:27.023Z,99.90
2019-04-29T16:27:01.191Z,99.90
2019-04-29T16:29:28.488Z,99.90
2019-04-29T16:32:02.186Z,99.90
2019-04-29T16:34:30.312Z,99.90
2019-04-29T16:37:00.661Z,99.90
2019-04-29T16:39:31.677Z,99.90
2019-04-29T16:42:30.031Z,99.90
2019-04-29T16:44:59.930Z,99.90
2019-04-29T16:47:29.632Z,99.90
2019-04-29T16:50:04.927Z,99.90
2019-04-29T16:52:30.622Z,99.90
2019-04-29T16:55:04.141Z,99.90
2019-04-29T16:57:32.040Z,99.90
2019-04-29T17:00:06.463Z,99.90
2019-04-29T17:02:33.133Z,99.90
2019-04-29T17:05:06.042Z,99.90
2019-04-29T17:07:36.480Z,99.90
2019-04-29T17:10:21.658Z,99.90
2019-04-29T17:12:51.842Z,99.90
2019-04-29T17:15:25.547Z,99.90
2019-04-29T17:17:53.231Z,99.90
2019-04-29T17:20:22.903Z,99.90
2019-04-29T17:22:52.812Z,99.90
2019-04-29T17:25:23.123Z,99.90
2019-04-29T17:28:12.340Z,99.90
2019-04-29T17:31:12.231Z,99.90
2019-04-29T17:33:52.190Z,99.90
2019-04-29T17:35:14.927Z,97.50
2019-04-29T17:36:24.023Z,99.90
2019-04-29T17:38:54.448Z,99.90
2019-04-29T17:41:24.534Z,99.90
2019-04-29T17:44:22.725Z,99.90
2019-04-29T17:47:20.359Z,99.90
2019-04-29T17:49:55.631Z,99.90
2019-04-29T17:52:28.115Z,99.90
2019-04-29T17:55:10.130Z,99.90
2019-04-29T17:57:47.525Z,99.90
2019-04-29T18:00:57.837Z,99.90
2019-04-29T18:03:57.913Z,99.90
2019-04-29T18:06:37.708Z,99.90
2019-04-29T18:09:30.404Z,99.90
2019-04-29T18:12:09.639Z,99.90
2019-04-29T18:14:41.898Z,99.90
2019-04-29T18:17:12.745Z,99.90
2019-04-29T18:19:53.191Z,99.90
2019-04-29T18:22:40.714Z,99.90
2019-04-29T18:25:15.334Z,99.90
2019-04-29T18:27:49.165Z,99.90
2019-04-29T18:30:21.039Z,99.90
2019-04-29T18:32:49.909Z,99.90
2019-04-29T18:35:19.729Z,99.90
2019-04-29T18:37:49.489Z,99.90
2019-04-29T18:40:19.894Z,99.90
2019-04-29T18:42:50.537Z,99.90
2019-04-29T18:45:20.296Z,99.90
2019-04-29T18:47:50.482Z,99.90
2019-04-29T18:50:20.648Z,99.90
2019-04-29T18:52:50.373Z,99.90
2019-04-29T18:55:20.187Z,99.90
2019-04-29T18:57:50.370Z,99.90
2019-04-29T19:00:21.927Z,99.90
2019-04-29T19:02:56.875Z,99.90
2019-04-29T19:05:32.288Z,99.90
2019-04-29T19:08:11.381Z,99.90
2019-04-29T19:10:34.955Z,99.90
2019-04-29T19:13:05.389Z,99.90
2019-04-29T19:15:35.546Z,99.90
2019-04-29T19:18:07.783Z,99.90
2019-04-29T19:20:37.036Z,99.90
2019-04-29T19:23:10.109Z,99.90
2019-04-29T19:25:41.608Z,99.90
2019-04-29T19:28:14.339Z,99.90
2019-04-29T19:30:41.944Z,99.90
2019-04-29T19:33:11.848Z,99.90
2019-04-29T19:35:41.677Z,99.90
2019-04-29T19:38:13.455Z,99.90
2019-04-29T19:40:42.942Z,99.90
2019-04-29T19:43:16.435Z,99.90
2019-04-29T19:45:44.618Z,99.90
2019-04-29T19:48:16.240Z,99.90
2019-04-29T19:50:49.618Z,99.90
2019-04-29T19:53:18.459Z,99.90
2019-04-29T19:55:48.252Z,99.90
2019-04-29T19:58:28.347Z,99.90
2019-04-29T20:00:50.316Z,99.90
2019-04-29T20:03:24.347Z,99.90
2019-04-29T20:06:07.453Z,99.90
2019-04-29T20:08:49.894Z,99.90
2019-04-29T20:11:11.650Z,99.90
2019-04-29T20:13:32.050Z,99.90
2019-04-29T20:16:43.006Z,99.90
2019-04-29T20:19:20.145Z,99.90
2019-04-29T20:21:45.772Z,99.90
2019-04-29T20:24:17.449Z,99.90
2019-04-29T20:26:47.092Z,99.90
2019-04-29T20:29:17.376Z,99.90
2019-04-29T20:31:51.567Z,99.90
2019-04-29T20:34:23.707Z,99.90
2019-04-29T20:36:49.670Z,99.90
2019-04-29T20:39:23.315Z,99.90
2019-04-29T20:41:50.797Z,99.90
2019-04-29T20:44:20.672Z,99.90
2019-04-29T20:47:13.019Z,99.90
2019-04-29T20:49:22.419Z,99.90
2019-04-29T20:51:55.988Z,99.90
2019-04-29T20:54:28.064Z,99.90
2019-04-29T20:57:04.757Z,99.90
2019-04-29T20:59:29.629Z,99.90
2019-04-29T21:02:12.120Z,99.90
2019-04-29T21:04:39.227Z,99.90
2019-04-29T21:07:06.870Z,99.90
2019-04-29T21:09:36.534Z,99.90
2019-04-29T21:12:25.576Z,99.90
2019-04-29T21:14:59.443Z,99.90
2019-04-29T21:17:31.918Z,99.90
2019-04-29T21:20:00.736Z,99.90
2019-04-29T21:22:30.318Z,99.90
2019-04-29T21:24:59.776Z,99.90
2019-04-29T21:27:29.253Z,99.90
2019-04-29T21:29:58.959Z,99.90
2019-04-29T21:32:30.484Z,99.90
2019-04-29T21:35:15.107Z,99.90
2019-04-29T21:37:50.257Z,99.90
2019-04-29T21:40:31.685Z,99.90
2019-04-29T21:43:13.633Z,99.90
2019-04-29T21:45:39.813Z,99.90
2019-04-29T21:48:10.743Z,99.90
2019-04-29T21:50:40.241Z,99.90
2019-04-29T21:53:09.605Z,99.90
2019-04-29T21:55:39.214Z,99.90
2019-04-29T21:58:08.863Z,99.90
2019-04-29T22:00:38.248Z,99.90
2019-04-29T22:03:07.887Z,99.90
2019-04-29T22:05:37.730Z,99.90
2019-04-29T22:08:07.298Z,99.90
2019-04-29T22:10:36.891Z,99.90
2019-04-29T22:13:06.721Z,99.90
2019-04-29T22:15:39.083Z,99.90
2019-04-29T22:18:13.909Z,99.90
2019-04-29T22:20:42.260Z,99.90
2019-04-29T22:23:13.158Z,99.90
2019-04-29T22:25:45.650Z,99.90
2019-04-29T22:28:16.021Z,99.90
2019-04-29T22:30:45.306Z,99.90
2019-04-29T22:33:15.390Z,99.90
2019-04-29T22:35:45.234Z,99.90
2019-04-29T22:38:18.322Z,99.90
2019-04-29T22:40:46.528Z,99.90
2019-04-29T22:43:36.154Z,99.90
2019-04-29T22:46:09.433Z,99.90
2019-04-29T22:48:40.616Z,99.90
2019-04-29T22:51:10.060Z,99.90
2019-04-29T22:53:40.133Z,99.90
2019-04-29T22:56:14.082Z,99.90
2019-04-29T22:58:43.953Z,99.90
2019-04-29T23:01:13.133Z,99.90
2019-04-29T23:03:42.495Z,99.90
2019-04-29T23:06:12.040Z,99.90
2019-04-29T23:08:41.522Z,99.90
2019-04-29T23:11:11.224Z,99.90
2019-04-29T23:13:40.760Z,99.90
2019-04-29T23:16:10.316Z,99.90
2019-04-29T23:18:44.038Z,99.90
2019-04-29T23:21:30.139Z,99.90
2019-04-29T23:24:30.592Z,99.90
2019-04-29T23:27:01.741Z,99.90
2019-04-29T23:29:31.061Z,99.90
2019-04-29T23:32:04.789Z,99.90
2019-04-29T23:34:31.785Z,99.90
2019-04-29T23:37:01.343Z,99.90
2019-04-29T23:39:30.857Z,99.90
2019-04-29T23:42:04.677Z,99.90
2019-04-29T23:44:31.433Z,99.90
2019-04-29T23:47:05.131Z,99.90
2019-04-29T23:49:35.357Z,99.90
2019-04-29T23:52:06.718Z,99.90
2019-04-29T23:54:44.199Z,99.90
2019-04-29T23:57:16.292Z,99.90
